Time;durP1;ratioP1;P1;durP2;ratioP2;P2;SDS_P1;SDS_P2;PMS_P1;PMS_P2;Temp;Humidity;BMP_temperature;BMP_pressure;BME280_temperature;BME280_humidity;BME280_pressure;Samples;Min_cycle;Max_cycle;Signal;HPM_P1;HPM_P2
2021/12/19 00:04:33;;;;;;;50.50;23.10;;;9.40;84.40;;;;;;4947806;28;20232;-84
2021/12/19 00:09:44;;;;;;;51.20;25.00;;;9.40;84.40;;;;;;4949473;28;20226;-82
2021/12/19 00:12:12;;;;;;;55.47;26.53;;;9.40;84.40;;;;;;4948568;29;20286;-81
2021/12/19 00:14:39;;;;;;;45.77;23.13;;;9.40;84.50;;;;;;4949192;29;20303;-81
2021/12/19 00:17:06;;;;;;;53.13;25.53;;;9.40;84.50;;;;;;4948836;28;20211;-80
2021/12/19 00:19:34;;;;;;;66.93;26.57;;;9.40;84.50;;;;;;4947872;28;20258;-82
2021/12/19 00:22:01;;;;;;;53.87;21.23;;;9.40;84.70;;;;;;4945922;28;20626;-81
2021/12/19 00:24:29;;;;;;;58.10;25.57;;;9.50;84.80;;;;;;4948150;28;20235;-81
2021/12/19 00:26:56;;;;;;;45.90;23.90;;;9.50;84.80;;;;;;4948638;29;20935;-80
2021/12/19 00:29:23;;;;;;;44.07;20.93;;;9.50;84.80;;;;;;4948785;29;20309;-81
2021/12/19 00:31:50;;;;;;;39.90;22.10;;;9.50;84.80;;;;;;4948458;29;20238;-81
2021/12/19 00:34:17;;;;;;;52.97;23.53;;;9.50;84.80;;;;;;4948451;29;20314;-81
2021/12/19 00:36:46;;;;;;;47.73;23.27;;;9.50;84.70;;;;;;4947426;29;20326;-80
2021/12/19 00:39:13;;;;;;;48.07;22.23;;;9.60;84.80;;;;;;4948658;28;20261;-80
2021/12/19 00:41:40;;;;;;;59.00;24.50;;;9.60;84.70;;;;;;4948093;29;20690;-79
2021/12/19 00:44:10;;;;;;;44.20;20.10;;;9.60;84.60;;;;;;4948752;29;20290;-81
2021/12/19 00:46:46;;;;;;;44.23;21.40;;;9.60;84.60;;;;;;4948051;29;20192;-83
2021/12/19 00:49:14;;;;;;;52.30;20.93;;;9.60;84.50;;;;;;4948116;28;20221;-83
2021/12/19 00:51:41;;;;;;;53.80;23.13;;;9.60;84.60;;;;;;4947474;29;20892;-82
2021/12/19 00:54:09;;;;;;;49.23;23.57;;;9.60;84.50;;;;;;4946609;28;20292;-81
2021/12/19 00:56:41;;;;;;;56.67;21.30;;;9.60;84.40;;;;;;4947148;29;20207;-82
2021/12/19 00:59:08;;;;;;;50.37;22.97;;;9.70;84.40;;;;;;4947895;28;20249;-81
2021/12/19 01:01:37;;;;;;;63.53;22.20;;;9.70;84.50;;;;;;4946623;28;20294;-81
2021/12/19 01:04:06;;;;;;;38.63;19.77;;;9.70;84.40;;;;;;4948383;28;20322;-82
2021/12/19 01:06:32;;;;;;;74.30;23.40;;;9.70;84.40;;;;;;4949041;28;20200;-83
2021/12/19 01:08:59;;;;;;;64.97;21.53;;;9.70;84.40;;;;;;4948653;29;20657;-81
2021/12/19 01:11:28;;;;;;;48.27;21.13;;;9.70;84.30;;;;;;4949642;29;20235;-81
2021/12/19 01:13:55;;;;;;;45.60;21.47;;;9.70;84.30;;;;;;4950116;29;20302;-81
2021/12/19 01:16:22;;;;;;;42.60;19.83;;;9.70;84.30;;;;;;4950430;28;20210;-81
2021/12/19 01:18:50;;;;;;;38.93;19.13;;;9.70;84.20;;;;;;4949707;28;20231;-81
2021/12/19 01:21:17;;;;;;;41.60;19.63;;;9.70;84.20;;;;;;4950293;29;20234;-82
2021/12/19 01:23:44;;;;;;;38.67;19.07;;;9.70;84.10;;;;;;4950878;29;20608;-82
2021/12/19 01:26:12;;;;;;;49.57;22.23;;;9.80;84.20;;;;;;4949141;28;20290;-81
2021/12/19 01:28:42;;;;;;;44.53;21.70;;;9.70;84.20;;;;;;4950493;29;20337;-81
2021/12/19 01:31:09;;;;;;;41.80;20.47;;;9.70;84.20;;;;;;4950356;28;20858;-81
2021/12/19 01:33:36;;;;;;;42.23;24.00;;;9.70;84.10;;;;;;4950863;29;20270;-81
2021/12/19 01:36:05;;;;;;;41.93;22.50;;;9.80;84.20;;;;;;4952309;28;20290;-81
2021/12/19 01:38:32;;;;;;;50.50;21.43;;;9.80;84.10;;;;;;4955320;28;20314;-83
2021/12/19 01:40:59;;;;;;;55.57;25.80;;;9.80;84.10;;;;;;4952755;28;20637;-80
2021/12/19 01:43:26;;;;;;;45.33;21.10;;;9.80;84.80;;;;;;4953530;29;20299;-81
2021/12/19 01:45:54;;;;;;;47.97;22.13;;;9.80;84.00;;;;;;4953156;28;20302;-81
2021/12/19 01:48:22;;;;;;;41.63;22.30;;;9.70;83.80;;;;;;4953386;29;20736;-82
2021/12/19 01:50:49;;;;;;;48.87;22.43;;;9.70;83.80;;;;;;4953920;29;20230;-81
2021/12/19 01:53:17;;;;;;;48.10;23.80;;;9.80;83.90;;;;;;4953930;29;20291;-80
2021/12/19 01:55:46;;;;;;;37.53;19.70;;;9.80;84.00;;;;;;4953009;29;20294;-81
2021/12/19 01:58:15;;;;;;;45.87;21.23;;;9.70;83.80;;;;;;4953339;28;20220;-81
2021/12/19 02:00:45;;;;;;;52.53;21.10;;;9.70;83.70;;;;;;4952863;29;20209;-83
2021/12/19 02:03:14;;;;;;;43.63;19.70;;;9.70;83.70;;;;;;4953070;29;20936;-82
2021/12/19 02:05:42;;;;;;;52.37;21.67;;;9.70;83.70;;;;;;4952709;29;20209;-81
2021/12/19 02:08:10;;;;;;;38.47;18.93;;;9.70;83.70;;;;;;4952618;28;20321;-84
2021/12/19 02:10:37;;;;;;;45.93;19.00;;;9.70;83.50;;;;;;4953121;29;20207;-81
2021/12/19 02:13:06;;;;;;;41.07;20.30;;;9.70;83.60;;;;;;4952494;29;20309;-82
2021/12/19 02:15:35;;;;;;;36.70;18.13;;;9.70;83.60;;;;;;4952964;29;20202;-84
2021/12/19 02:18:04;;;;;;;37.33;21.60;;;9.70;83.70;;;;;;4952641;28;20606;-84
2021/12/19 02:20:35;;;;;;;42.83;17.20;;;9.70;83.60;;;;;;4952920;29;20254;-81
2021/12/19 02:23:02;;;;;;;44.50;15.67;;;9.70;83.60;;;;;;4952656;29;20310;-80
2021/12/19 02:25:29;;;;;;;43.33;18.50;;;9.70;83.70;;;;;;4952583;29;20308;-83
2021/12/19 02:27:56;;;;;;;37.43;21.33;;;9.70;83.70;;;;;;4952638;29;20269;-81
2021/12/19 02:30:23;;;;;;;37.70;20.03;;;9.60;83.60;;;;;;4952537;29;20241;-82
2021/12/19 02:32:50;;;;;;;50.87;21.73;;;9.60;83.70;;;;;;4952521;29;20321;-81
2021/12/19 02:35:21;;;;;;;45.43;21.17;;;9.60;83.70;;;;;;4952034;29;20754;-81
2021/12/19 02:48:09;;;;;;;35.63;18.83;;;9.70;83.80;;;;;;4939353;29;20326;-81
2021/12/19 02:48:56;;;;;;;39.53;20.93;;;9.70;83.80;;;;;;4953641;28;20669;-81
2021/12/19 02:51:26;;;;;;;41.13;20.47;;;9.70;83.80;;;;;;4952318;28;20191;-80
2021/12/19 02:53:56;;;;;;;42.03;20.33;;;9.70;83.80;;;;;;4952112;28;20209;-81
2021/12/19 02:56:23;;;;;;;46.60;19.87;;;9.60;83.70;;;;;;4951707;28;20219;-82
2021/12/19 02:58:50;;;;;;;44.47;20.43;;;9.70;83.80;;;;;;4952101;28;20309;-82
2021/12/19 03:01:20;;;;;;;39.90;18.50;;;9.60;83.70;;;;;;4952102;29;20213;-82
2021/12/19 03:03:47;;;;;;;34.83;20.47;;;9.70;83.70;;;;;;4952357;28;20207;-84
2021/12/19 03:06:14;;;;;;;43.13;20.33;;;9.70;83.50;;;;;;4952314;28;20301;-81
2021/12/19 03:08:45;;;;;;;40.73;17.37;;;9.70;83.50;;;;;;4951560;28;20682;-81
2021/12/19 03:11:47;;;;;;;39.07;19.43;;;9.60;83.40;;;;;;4953075;28;20222;-81
2021/12/19 03:19:44;;;;;;;44.47;21.60;;;9.60;83.40;;;;;;4914290;29;20225;-81
2021/12/19 03:22:11;;;;;;;40.87;19.40;;;9.60;83.30;;;;;;4951590;28;20248;-81
2021/12/19 03:24:38;;;;;;;39.43;20.70;;;9.60;83.40;;;;;;4951777;28;20623;-81
2021/12/19 03:27:07;;;;;;;42.50;19.67;;;9.50;83.20;;;;;;4951587;29;20240;-81
2021/12/19 03:29:34;;;;;;;40.27;19.93;;;9.50;83.10;;;;;;4951419;28;20799;-81
2021/12/19 03:32:01;;;;;;;44.47;21.03;;;9.50;83.10;;;;;;4951364;28;20249;-81
2021/12/19 03:34:28;;;;;;;35.43;18.97;;;9.50;83.10;;;;;;4951300;28;20249;-85
2021/12/19 03:36:54;;;;;;;38.07;18.50;;;9.50;83.20;;;;;;4950999;28;20206;-82
2021/12/19 03:39:36;;;;;;;42.43;17.23;;;9.60;83.50;;;;;;4950802;28;20313;-81
2021/12/19 03:42:04;;;;;;;39.63;19.33;;;9.50;83.50;;;;;;4942159;29;20245;-81
2021/12/19 03:44:32;;;;;;;43.30;20.93;;;9.50;83.50;;;;;;4951693;28;20282;-82
2021/12/19 03:46:59;;;;;;;38.77;17.87;;;9.50;83.50;;;;;;4951561;28;20241;-80
2021/12/19 03:49:26;;;;;;;38.60;19.97;;;9.50;83.50;;;;;;4951091;28;20316;-81
2021/12/19 03:51:53;;;;;;;43.57;22.17;;;9.50;83.60;;;;;;4951095;28;20296;-82
2021/12/19 03:54:21;;;;;;;39.20;21.40;;;9.50;83.50;;;;;;4951677;28;20233;-81
2021/12/19 03:56:48;;;;;;;56.10;18.57;;;9.50;83.60;;;;;;4952463;28;20292;-82
2021/12/19 03:59:15;;;;;;;36.07;19.17;;;9.60;83.60;;;;;;4951464;28;20259;-81
2021/12/19 04:01:48;;;;;;;37.40;18.83;;;9.50;83.40;;;;;;4951137;28;20239;-81
2021/12/19 04:04:15;;;;;;;33.30;16.13;;;9.50;83.30;;;;;;4950347;28;20206;-81
2021/12/19 04:06:42;;;;;;;31.07;16.20;;;9.50;83.30;;;;;;4951310;29;20301;-86
2021/12/19 04:09:09;;;;;;;39.73;16.73;;;9.50;83.40;;;;;;4950075;28;20266;-82
2021/12/19 04:11:36;;;;;;;36.80;18.87;;;9.50;83.40;;;;;;4954923;28;20234;-81
2021/12/19 04:14:03;;;;;;;42.97;17.80;;;9.50;83.40;;;;;;4950694;28;20285;-81
2021/12/19 04:16:30;;;;;;;43.07;20.93;;;9.50;83.50;;;;;;4950658;29;20251;-81
2021/12/19 04:18:58;;;;;;;44.23;19.30;;;9.50;83.50;;;;;;4950791;28;20268;-81
2021/12/19 04:21:25;;;;;;;29.63;17.73;;;9.50;83.50;;;;;;4950960;28;20206;-81
2021/12/19 04:23:52;;;;;;;41.83;19.50;;;9.50;83.50;;;;;;4950988;28;20303;-85
2021/12/19 04:26:19;;;;;;;31.90;19.27;;;9.50;83.60;;;;;;4950535;28;20214;-81
2021/12/19 04:28:46;;;;;;;33.67;17.90;;;9.60;83.70;;;;;;4950812;28;20325;-81
2021/12/19 04:31:13;;;;;;;39.67;16.67;;;9.50;83.60;;;;;;4950300;28;20309;-81
2021/12/19 04:33:41;;;;;;;35.20;17.47;;;9.60;83.70;;;;;;4951104;28;20657;-82
2021/12/19 04:36:15;;;;;;;35.67;18.10;;;9.50;83.50;;;;;;4950897;28;20198;-83
2021/12/19 04:39:19;;;;;;;41.10;19.73;;;9.60;83.50;;;;;;4950467;28;20294;-81
2021/12/19 04:50:49;;;;;;;33.10;16.97;;;9.60;83.60;;;;;;4932414;29;20349;-81
2021/12/19 04:53:12;;;;;;;31.33;17.83;;;9.60;83.50;;;;;;4951064;28;20685;-81
2021/12/19 04:58:50;;;;;;;47.60;19.40;;;9.60;83.60;;;;;;4950081;28;20225;-84
2021/12/19 05:04:24;;;;;;;45.20;22.57;;;9.60;83.60;;;;;;4908891;29;20554;-84
2021/12/19 05:15:05;;;;;;;34.37;18.83;;;9.60;83.70;;;;;;4953653;28;20212;-81
2021/12/19 05:17:33;;;;;;;35.07;16.53;;;9.60;83.70;;;;;;4954160;28;20297;-81
2021/12/19 05:20:13;;;;;;;43.43;17.10;;;9.60;83.70;;;;;;4953525;28;20253;-81
2021/12/19 05:22:47;;;;;;;42.40;20.73;;;9.60;83.70;;;;;;4953612;28;20298;-80
2021/12/19 05:25:17;;;;;;;39.93;16.93;;;9.60;83.70;;;;;;4953394;28;20243;-82
2021/12/19 05:27:46;;;;;;;40.23;20.00;;;9.60;83.40;;;;;;4953509;28;20216;-81
2021/12/19 05:30:15;;;;;;;42.73;19.73;;;9.60;83.30;;;;;;4953071;28;20650;-82
2021/12/19 05:32:42;;;;;;;37.03;18.90;;;9.60;83.20;;;;;;4953744;28;20298;-81
2021/12/19 05:35:11;;;;;;;42.07;16.30;;;9.60;83.20;;;;;;4953008;28;21009;-81
2021/12/19 05:45:54;;;;;;;32.43;19.87;;;9.60;83.60;;;;;;4953091;28;20210;-82
2021/12/19 05:48:21;;;;;;;35.83;18.93;;;9.60;83.60;;;;;;4952945;28;20709;-81
2021/12/19 05:50:48;;;;;;;37.20;20.67;;;9.60;83.70;;;;;;4953249;28;20790;-80
2021/12/19 05:53:16;;;;;;;33.37;22.10;;;9.60;83.60;;;;;;4953500;28;20206;-85
2021/12/19 05:55:44;;;;;;;37.87;20.40;;;9.60;83.60;;;;;;4952978;28;20204;-83
2021/12/19 05:58:11;;;;;;;32.60;18.47;;;9.60;83.60;;;;;;4953684;28;20360;-81
2021/12/19 06:00:39;;;;;;;43.53;18.70;;;9.60;83.50;;;;;;4953112;28;20736;-81
2021/12/19 06:03:06;;;;;;;35.87;16.87;;;9.60;83.40;;;;;;4952984;29;20641;-81
2021/12/19 06:05:33;;;;;;;43.90;19.97;;;9.60;84.20;;;;;;4952421;28;20251;-84
2021/12/19 06:08:00;;;;;;;42.27;19.47;;;9.60;83.50;;;;;;4952866;28;20285;-81
2021/12/19 06:10:28;;;;;;;39.37;21.53;;;9.60;83.40;;;;;;4952838;28;20650;-86
2021/12/19 06:12:59;;;;;;;33.23;17.90;;;9.60;83.30;;;;;;4953033;28;20230;-81
2021/12/19 06:15:26;;;;;;;43.37;19.47;;;9.60;83.20;;;;;;4952892;28;20206;-80
2021/12/19 06:17:53;;;;;;;43.27;18.53;;;9.60;83.20;;;;;;4955483;28;20237;-80
2021/12/19 06:20:21;;;;;;;34.37;16.77;;;9.60;83.20;;;;;;4952411;28;20202;-81
2021/12/19 06:22:48;;;;;;;34.47;19.93;;;9.60;83.20;;;;;;4952340;28;20275;-84
2021/12/19 06:25:15;;;;;;;39.80;19.23;;;9.60;83.10;;;;;;4952769;28;20625;-82
2021/12/19 06:27:42;;;;;;;32.60;18.03;;;9.60;83.20;;;;;;4952759;28;20282;-81
2021/12/19 06:30:12;;;;;;;40.50;18.77;;;9.60;83.20;;;;;;4952284;28;20238;-82
2021/12/19 06:32:39;;;;;;;42.97;19.83;;;9.60;83.20;;;;;;4952432;29;20246;-82
2021/12/19 06:35:11;;;;;;;42.33;18.60;;;9.50;83.40;;;;;;4952041;28;20742;-82
2021/12/19 06:37:39;;;;;;;34.27;17.27;;;9.50;83.50;;;;;;4952751;28;20204;-82
2021/12/19 06:40:08;;;;;;;48.90;18.47;;;9.50;83.40;;;;;;4952289;29;20738;-81
2021/12/19 06:42:35;;;;;;;35.63;20.30;;;9.60;83.30;;;;;;4952021;28;20733;-81
2021/12/19 06:45:02;;;;;;;40.90;21.10;;;9.60;83.30;;;;;;4951453;28;20212;-83
2021/12/19 06:47:30;;;;;;;48.33;17.27;;;9.50;83.30;;;;;;4951956;28;20302;-81
2021/12/19 06:49:58;;;;;;;47.53;20.17;;;9.50;83.50;;;;;;4951906;28;20333;-80
2021/12/19 06:52:25;;;;;;;36.43;19.03;;;9.50;83.60;;;;;;4952552;29;20262;-81
2021/12/19 06:54:52;;;;;;;40.03;16.07;;;9.50;83.70;;;;;;4952054;28;20700;-81
2021/12/19 06:57:19;;;;;;;42.03;20.77;;;9.50;83.70;;;;;;4952661;28;20239;-80
2021/12/19 06:59:47;;;;;;;45.80;18.90;;;9.50;83.70;;;;;;4951894;28;20739;-81
2021/12/19 07:02:15;;;;;;;38.60;20.70;;;9.50;83.80;;;;;;4951200;28;20210;-81
2021/12/19 07:04:44;;;;;;;40.07;20.33;;;9.60;83.90;;;;;;4952315;28;20259;-85
2021/12/19 07:07:12;;;;;;;38.73;19.57;;;9.50;83.80;;;;;;4952036;29;20290;-81
2021/12/19 07:09:39;;;;;;;35.10;21.47;;;9.60;83.90;;;;;;4951201;28;20317;-84
2021/12/19 07:12:07;;;;;;;46.13;20.20;;;9.60;83.90;;;;;;4944875;28;20202;-81
2021/12/19 07:14:35;;;;;;;41.40;17.87;;;9.60;84.00;;;;;;4950720;28;20322;-81
2021/12/19 07:17:02;;;;;;;36.10;20.60;;;9.60;84.00;;;;;;4952139;29;20206;-83
2021/12/19 07:19:30;;;;;;;37.57;19.03;;;9.60;84.00;;;;;;4951933;28;20312;-81
2021/12/19 07:21:58;;;;;;;38.77;18.13;;;9.60;83.90;;;;;;4952330;28;20206;-83
2021/12/19 07:24:25;;;;;;;35.13;17.73;;;9.60;83.80;;;;;;4951365;28;20310;-81
2021/12/19 07:26:52;;;;;;;41.60;18.53;;;9.60;83.80;;;;;;4953028;28;20643;-81
2021/12/19 07:29:19;;;;;;;38.97;20.83;;;9.60;83.60;;;;;;4952622;28;20223;-81
2021/12/19 07:31:46;;;;;;;39.27;21.13;;;9.60;83.60;;;;;;4950701;29;20730;-82
2021/12/19 07:34:13;;;;;;;38.20;21.00;;;9.60;83.60;;;;;;4951532;28;20207;-81
2021/12/19 07:36:43;;;;;;;38.73;17.60;;;9.60;83.60;;;;;;4950438;28;21015;-81
2021/12/19 07:39:23;;;;;;;42.43;17.87;;;9.60;83.70;;;;;;4951033;28;20246;-82
2021/12/19 07:41:50;;;;;;;51.83;20.90;;;9.60;83.80;;;;;;4950929;28;20654;-81
2021/12/19 07:44:17;;;;;;;44.13;20.67;;;9.60;83.80;;;;;;4951153;28;20239;-80
2021/12/19 07:46:44;;;;;;;42.17;20.23;;;9.60;83.90;;;;;;4951462;28;20315;-81
2021/12/19 07:49:11;;;;;;;39.80;19.97;;;9.60;83.90;;;;;;4950814;28;20325;-83
2021/12/19 07:51:38;;;;;;;46.83;21.70;;;9.60;84.00;;;;;;4951190;28;20218;-85
2021/12/19 07:54:05;;;;;;;40.20;20.07;;;9.60;84.00;;;;;;4951289;28;20288;-81
2021/12/19 07:56:34;;;;;;;42.20;20.97;;;9.60;84.00;;;;;;4950917;29;20737;-83
2021/12/19 07:59:01;;;;;;;33.70;17.03;;;9.70;84.20;;;;;;4950850;28;20231;-81
2021/12/19 08:01:28;;;;;;;41.00;17.27;;;9.60;84.20;;;;;;4950384;28;20755;-81
2021/12/19 08:03:55;;;;;;;35.70;19.27;;;9.60;84.20;;;;;;4950400;29;20251;-81
2021/12/19 08:06:22;;;;;;;35.60;18.87;;;9.70;84.40;;;;;;4950909;28;20265;-84
2021/12/19 08:08:53;;;;;;;36.07;18.40;;;9.70;84.40;;;;;;4951006;28;20310;-81
2021/12/19 08:14:07;;;;;;;32.83;15.97;;;9.70;84.50;;;;;;4950428;28;20241;-81
2021/12/19 08:16:34;;;;;;;30.90;13.87;;;9.70;84.60;;;;;;4949722;28;20628;-81
2021/12/19 08:19:01;;;;;;;35.50;16.33;;;9.70;84.60;;;;;;4954269;28;20779;-81
2021/12/19 08:21:28;;;;;;;38.93;14.07;;;9.80;84.70;;;;;;4951970;28;20247;-81
2021/12/19 08:23:58;;;;;;;45.43;16.10;;;9.80;84.80;;;;;;4954866;28;20205;-80
2021/12/19 08:26:25;;;;;;;30.90;14.60;;;9.80;84.80;;;;;;4970367;28;20206;-81
2021/12/19 08:28:52;;;;;;;36.87;15.20;;;9.80;84.80;;;;;;4958011;28;20579;-84
2021/12/19 08:31:21;;;;;;;37.40;14.43;;;9.80;84.80;;;;;;4950923;28;20233;-81
2021/12/19 08:33:48;;;;;;;38.33;15.83;;;9.80;84.90;;;;;;4950306;28;20207;-82
2021/12/19 08:36:16;;;;;;;32.77;15.07;;;9.80;84.90;;;;;;4950592;29;20351;-82
2021/12/19 08:38:43;;;;;;;43.70;16.23;;;9.80;85.10;;;;;;4950506;28;20317;-81
2021/12/19 08:41:10;;;;;;;33.57;16.93;;;9.80;85.10;;;;;;4949975;28;20234;-81
2021/12/19 08:43:37;;;;;;;31.80;16.20;;;9.80;85.10;;;;;;4945731;28;20298;-84
2021/12/19 08:46:06;;;;;;;33.67;13.67;;;9.90;85.20;;;;;;4949496;28;20294;-85
2021/12/19 08:48:35;;;;;;;35.97;18.87;;;9.90;85.20;;;;;;4950340;29;20231;-83
2021/12/19 08:51:02;;;;;;;38.37;15.33;;;9.90;85.30;;;;;;4951321;28;20266;-80
2021/12/19 08:53:29;;;;;;;34.87;16.97;;;9.90;85.20;;;;;;4950315;28;20209;-82
2021/12/19 08:55:57;;;;;;;33.37;15.63;;;10.00;84.20;;;;;;4949826;28;20655;-87
2021/12/19 08:58:24;;;;;;;47.53;17.47;;;10.00;84.20;;;;;;4949391;28;20302;-81
2021/12/19 09:00:50;;;;;;;29.40;16.03;;;10.00;84.30;;;;;;4950756;29;20219;-81
2021/12/19 09:03:17;;;;;;;25.23;13.50;;;10.00;84.30;;;;;;4950411;28;20675;-81
2021/12/19 09:05:46;;;;;;;39.57;16.23;;;10.00;84.20;;;;;;4950324;28;20213;-85
2021/12/19 09:08:13;;;;;;;36.70;15.70;;;10.10;84.30;;;;;;4952095;28;20234;-82
2021/12/19 09:10:40;;;;;;;33.33;14.07;;;10.10;84.30;;;;;;4953628;28;20325;-81
2021/12/19 09:13:07;;;;;;;40.33;13.70;;;10.10;84.30;;;;;;4969391;28;20202;-81
2021/12/19 09:15:34;;;;;;;28.37;15.40;;;10.10;84.40;;;;;;4969478;28;20235;-81
2021/12/19 09:18:01;;;;;;;43.87;15.10;;;10.20;84.40;;;;;;4969591;28;20238;-80
2021/12/19 09:20:28;;;;;;;39.70;14.60;;;10.20;84.50;;;;;;4969571;28;20260;-82
2021/12/19 09:22:56;;;;;;;34.70;15.70;;;10.20;84.50;;;;;;4969191;28;20685;-81
2021/12/19 09:25:23;;;;;;;42.50;16.37;;;10.20;84.50;;;;;;4968964;28;20304;-84
2021/12/19 09:27:50;;;;;;;30.53;14.47;;;10.30;84.60;;;;;;4969531;28;20266;-83
2021/12/19 09:30:19;;;;;;;38.63;14.70;;;10.30;84.60;;;;;;4969404;28;20227;-81
2021/12/19 09:32:47;;;;;;;26.40;13.27;;;10.30;84.50;;;;;;4969122;28;20301;-81
2021/12/19 09:35:16;;;;;;;32.60;13.90;;;10.30;84.50;;;;;;4969501;28;20235;-81
2021/12/19 09:37:43;;;;;;;28.67;15.80;;;10.40;84.60;;;;;;4969914;28;20203;-86
2021/12/19 09:40:18;;;;;;;36.27;12.60;;;10.40;84.70;;;;;;4966097;28;20292;-80
2021/12/19 09:42:49;;;;;;;24.77;13.07;;;10.40;84.60;;;;;;4968899;28;20298;-81
2021/12/19 09:45:16;;;;;;;29.40;15.90;;;10.40;84.60;;;;;;4970101;28;20261;-79
2021/12/19 09:47:44;;;;;;;28.43;11.87;;;10.50;84.70;;;;;;4988880;28;20218;-80
2021/12/19 09:50:11;;;;;;;22.67;11.40;;;10.50;84.70;;;;;;4978217;28;20293;-80
2021/12/19 09:52:38;;;;;;;30.87;14.10;;;10.50;84.70;;;;;;4970603;28;20293;-82
2021/12/19 09:55:06;;;;;;;28.03;12.50;;;10.50;84.70;;;;;;4969050;28;20302;-82
2021/12/19 09:57:34;;;;;;;27.83;13.13;;;10.60;84.80;;;;;;4970758;28;20261;-81
2021/12/19 10:00:01;;;;;;;32.87;12.30;;;10.60;84.80;;;;;;4972198;28;20266;-80
2021/12/19 10:02:29;;;;;;;30.23;12.27;;;10.60;84.80;;;;;;4972403;28;20297;-81
2021/12/19 10:04:56;;;;;;;27.40;14.17;;;10.60;84.80;;;;;;4972550;28;20253;-81
2021/12/19 10:07:28;;;;;;;26.07;13.27;;;10.60;84.80;;;;;;4953839;28;20239;-80
2021/12/19 10:10:00;;;;;;;28.03;12.87;;;10.70;84.70;;;;;;4971275;28;20234;-84
2021/12/19 10:12:39;;;;;;;27.93;15.83;;;10.70;84.60;;;;;;4972465;28;20202;-81
2021/12/19 10:15:10;;;;;;;33.50;16.03;;;10.70;84.60;;;;;;4972540;28;20206;-80
2021/12/19 10:17:38;;;;;;;26.03;11.40;;;10.70;84.70;;;;;;4972304;28;20292;-86
2021/12/19 10:20:07;;;;;;;26.73;11.33;;;10.70;84.60;;;;;;4972481;28;20326;-80
2021/12/19 10:22:37;;;;;;;36.93;15.47;;;10.80;84.60;;;;;;4959404;28;20234;-86
2021/12/19 10:25:18;;;;;;;47.67;12.67;;;10.80;84.50;;;;;;4963510;28;20952;-85
2021/12/19 10:27:48;;;;;;;27.43;10.70;;;10.80;84.40;;;;;;4958208;28;20715;-81
2021/12/19 10:30:21;;;;;;;38.40;12.70;;;10.80;84.30;;;;;;4955642;28;20255;-83
2021/12/19 10:32:59;;;;;;;33.67;11.17;;;10.80;84.30;;;;;;4960515;28;20298;-86
2021/12/19 10:35:29;;;;;;;28.27;12.47;;;10.80;84.30;;;;;;4952706;28;20727;-83
2021/12/19 10:37:56;;;;;;;28.60;11.27;;;10.80;84.20;;;;;;4952749;28;20293;-81
2021/12/19 10:40:24;;;;;;;21.30;10.37;;;10.80;84.20;;;;;;4957851;28;20215;-86
2021/12/19 10:42:59;;;;;;;35.83;13.53;;;10.90;84.30;;;;;;4969554;28;20571;-85
2021/12/19 10:45:33;;;;;;;28.03;13.07;;;10.90;84.30;;;;;;4960478;28;20207;-79
2021/12/19 10:48:18;;;;;;;39.90;13.03;;;10.90;84.30;;;;;;4958830;28;20200;-80
2021/12/19 10:50:48;;;;;;;28.30;10.50;;;10.90;84.10;;;;;;4952438;29;20732;-80
2021/12/19 10:53:17;;;;;;;38.50;10.00;;;10.90;84.00;;;;;;4950332;28;21212;-89
2021/12/19 10:55:46;;;;;;;31.37;10.37;;;11.00;84.10;;;;;;4951557;28;20214;-86
2021/12/19 10:58:31;;;;;;;31.13;11.27;;;11.00;84.10;;;;;;4954752;28;20616;-81
2021/12/19 11:01:19;;;;;;;22.03;12.60;;;11.00;84.10;;;;;;4952664;29;20565;-81
2021/12/19 11:03:50;;;;;;;30.30;10.57;;;11.00;84.00;;;;;;4952333;29;20306;-83
2021/12/19 11:06:21;;;;;;;30.97;11.80;;;11.00;84.10;;;;;;4952509;29;20302;-85
2021/12/19 11:08:49;;;;;;;33.73;13.50;;;11.00;84.20;;;;;;4951772;28;20258;-84
2021/12/19 11:11:53;;;;;;;28.20;14.67;;;11.00;84.20;;;;;;4951903;29;20235;-81
2021/12/19 11:14:26;;;;;;;23.50;11.03;;;11.00;84.90;;;;;;4952061;28;20298;-81
2021/12/19 11:16:56;;;;;;;30.23;11.43;;;11.10;84.20;;;;;;4965732;28;20234;-81
2021/12/19 11:19:24;;;;;;;33.27;11.17;;;11.10;84.10;;;;;;4970764;28;20931;-85
2021/12/19 11:21:51;;;;;;;29.27;9.93;;;11.10;84.90;;;;;;4970961;28;20214;-82
2021/12/19 11:24:19;;;;;;;28.73;11.03;;;11.10;84.00;;;;;;4971710;28;20626;-83
2021/12/19 11:26:48;;;;;;;23.37;11.43;;;11.10;84.10;;;;;;4971319;28;20215;-84
2021/12/19 11:29:16;;;;;;;18.00;9.17;;;11.10;84.00;;;;;;4971424;28;20254;-82
2021/12/19 11:31:46;;;;;;;26.87;10.80;;;11.10;83.80;;;;;;4970780;28;20345;-80
2021/12/19 11:34:30;;;;;;;20.63;11.93;;;11.10;83.80;;;;;;4970993;28;20682;-81
2021/12/19 11:37:02;;;;;;;24.40;9.33;;;11.10;83.70;;;;;;4971592;28;20995;-81
2021/12/19 11:39:34;;;;;;;18.90;9.00;;;11.10;83.80;;;;;;4971078;28;20345;-82
2021/12/19 11:42:13;;;;;;;36.43;11.20;;;11.20;84.00;;;;;;4971263;28;20224;-82
2021/12/19 11:44:59;;;;;;;26.57;9.03;;;11.20;83.70;;;;;;4970682;28;20974;-84
2021/12/19 11:47:48;;;;;;;30.07;10.10;;;11.20;83.70;;;;;;4951980;28;20233;-81
2021/12/19 11:50:25;;;;;;;28.70;10.97;;;11.20;83.70;;;;;;4950637;28;20235;-80
2021/12/19 11:52:54;;;;;;;23.07;9.60;;;11.20;83.70;;;;;;4951769;29;20306;-80
2021/12/19 11:55:30;;;;;;;26.47;11.77;;;11.20;83.60;;;;;;4951611;28;20233;-84
2021/12/19 11:58:28;;;;;;;25.70;10.67;;;11.20;83.50;;;;;;4951110;28;20327;-84
2021/12/19 12:01:05;;;;;;;23.53;10.97;;;11.20;83.40;;;;;;4929209;29;20826;-80
2021/12/19 12:03:55;;;;;;;21.50;8.93;;;11.20;83.50;;;;;;4947727;28;20291;-83
2021/12/19 12:06:40;;;;;;;28.87;10.17;;;11.20;83.70;;;;;;4951451;29;20295;-81
2021/12/19 12:09:26;;;;;;;34.97;12.00;;;11.20;83.80;;;;;;4951154;28;20661;-81
2021/12/19 12:12:19;;;;;;;25.40;8.67;;;11.20;83.60;;;;;;4950774;28;20238;-79
2021/12/19 12:15:09;;;;;;;30.63;10.17;;;11.30;83.60;;;;;;4951029;28;20301;-80
2021/12/19 12:17:51;;;;;;;24.10;10.90;;;11.30;83.50;;;;;;4928717;29;20203;-83
2021/12/19 12:20:26;;;;;;;23.90;9.37;;;11.20;83.60;;;;;;4931242;29;20211;-80
2021/12/19 12:23:15;;;;;;;26.50;10.90;;;11.30;83.70;;;;;;4932190;29;20295;-79
2021/12/19 12:25:43;;;;;;;25.67;10.07;;;11.30;83.80;;;;;;4931364;29;20291;-78
2021/12/19 12:28:15;;;;;;;26.67;11.10;;;11.30;83.80;;;;;;4931564;29;20235;-80
2021/12/19 12:30:45;;;;;;;30.00;11.43;;;11.30;83.80;;;;;;4931763;29;20224;-79
2021/12/19 12:33:15;;;;;;;33.33;11.13;;;11.30;83.80;;;;;;4931745;29;20251;-80
2021/12/19 12:35:44;;;;;;;29.53;11.93;;;11.30;83.80;;;;;;4931872;29;20201;-80
2021/12/19 12:38:11;;;;;;;29.30;10.97;;;11.30;83.80;;;;;;4931352;29;20670;-80
2021/12/19 12:40:54;;;;;;;21.57;10.00;;;11.30;83.80;;;;;;4931614;29;20274;-85
2021/12/19 12:43:23;;;;;;;38.00;10.40;;;11.40;83.70;;;;;;4931259;29;20571;-85
2021/12/19 12:45:57;;;;;;;28.70;10.83;;;11.30;83.50;;;;;;4950210;28;20235;-82
2021/12/19 12:48:49;;;;;;;20.83;10.77;;;11.40;83.60;;;;;;4957733;28;20220;-80
2021/12/19 12:51:20;;;;;;;26.57;10.23;;;11.40;83.40;;;;;;4950358;29;20745;-79
2021/12/19 12:53:50;;;;;;;32.00;11.33;;;11.40;83.50;;;;;;4949939;29;20290;-78
2021/12/19 12:56:21;;;;;;;26.13;10.33;;;11.40;83.50;;;;;;4949623;28;20192;-79
2021/12/19 12:58:51;;;;;;;30.90;10.83;;;11.40;83.20;;;;;;4949723;28;20231;-88
2021/12/19 13:01:30;;;;;;;26.37;10.23;;;11.50;83.40;;;;;;4949758;28;20572;-83
2021/12/19 13:04:14;;;;;;;26.00;9.97;;;11.40;83.20;;;;;;4950702;29;20269;-78
2021/12/19 13:07:01;;;;;;;25.30;10.73;;;11.40;83.00;;;;;;4951351;28;20642;-82
2021/12/19 13:09:34;;;;;;;30.63;10.53;;;11.40;82.90;;;;;;4951013;29;20254;-83
2021/12/19 13:12:10;;;;;;;26.50;12.67;;;11.40;82.90;;;;;;4949875;28;20235;-79
2021/12/19 13:14:39;;;;;;;24.67;9.70;;;11.40;82.90;;;;;;4950200;28;20302;-81
2021/12/19 13:17:09;;;;;;;30.37;10.93;;;11.40;83.00;;;;;;4964358;28;20282;-80
2021/12/19 13:19:48;;;;;;;33.67;12.90;;;11.40;83.00;;;;;;4949646;28;20227;-80
2021/12/19 13:22:21;;;;;;;23.90;10.57;;;11.40;83.00;;;;;;4950343;28;20207;-81
2021/12/19 13:24:50;;;;;;;22.57;9.80;;;11.40;83.10;;;;;;4949982;29;20208;-81
2021/12/19 13:27:20;;;;;;;26.20;11.53;;;11.40;83.20;;;;;;4949933;28;20639;-80
2021/12/19 13:30:17;;;;;;;38.00;12.67;;;11.40;83.20;;;;;;4949047;29;20275;-82
2021/12/19 13:32:47;;;;;;;32.53;14.50;;;11.40;83.10;;;;;;4944935;29;20235;-83
2021/12/19 13:35:19;;;;;;;27.33;10.87;;;11.40;83.30;;;;;;4953572;28;20227;-80
2021/12/19 13:37:57;;;;;;;57.57;16.30;;;11.40;83.20;;;;;;4948504;28;20738;-80
2021/12/19 13:40:25;;;;;;;28.33;13.53;;;11.40;83.30;;;;;;4951070;28;20293;-86
2021/12/19 13:42:56;;;;;;;43.80;15.37;;;11.40;83.30;;;;;;4951572;28;20233;-80